createdAt,value
2023-02-23T00:00:45.026Z,100444.47
2023-02-23T00:03:22.469Z,100435.00
2023-02-23T00:06:13.429Z,100436.66
2023-02-23T00:08:44.359Z,100436.66
2023-02-23T00:11:14.813Z,100428.03
2023-02-23T00:13:53.048Z,100432.28
2023-02-23T00:16:25.585Z,100427.13
2023-02-23T00:19:02.711Z,100430.56
2023-02-23T00:21:40.526Z,100436.56
2023-02-23T00:24:33.761Z,100428.78
2023-02-23T00:27:07.016Z,100427.88
2023-02-23T00:29:50.086Z,100418.44
2023-02-23T00:32:22.669Z,100431.28
2023-02-23T00:34:54.045Z,100419.25
2023-02-23T00:37:23.861Z,100420.97
2023-02-23T00:39:53.182Z,100422.69
2023-02-23T00:42:25.117Z,100418.38
2023-02-23T00:44:59.447Z,100421.81
2023-02-23T00:47:35.917Z,100413.22
2023-02-23T00:50:14.993Z,100414.09
2023-02-23T00:52:52.867Z,100414.97
2023-02-23T00:55:42.880Z,100415.84
2023-02-23T00:58:18.796Z,100413.25
2023-02-23T01:00:57.617Z,100415.00
2023-02-23T01:03:27.323Z,100407.31
2023-02-23T01:06:05.556Z,100413.28
2023-02-23T01:08:35.394Z,100414.13
2023-02-23T01:11:21.567Z,100414.97
2023-02-23T01:13:53.697Z,100413.19
2023-02-23T01:16:35.964Z,100409.75
2023-02-23T01:19:16.430Z,100403.75
2023-02-23T01:21:48.583Z,100408.09
2023-02-23T01:24:19.331Z,100406.41
2023-02-23T01:26:52.600Z,100401.28
2023-02-23T01:29:28.966Z,100397.91
2023-02-23T01:32:07.508Z,100398.72
2023-02-23T01:34:37.157Z,100393.59
2023-02-23T01:37:09.764Z,100399.59
2023-02-23T01:39:38.912Z,100399.56
2023-02-23T01:42:14.615Z,100384.09
2023-02-23T01:45:23.899Z,100392.63
2023-02-23T01:48:03.788Z,100384.03
2023-02-23T01:50:40.058Z,100383.13
2023-02-23T01:53:15.670Z,100379.69
2023-02-23T01:55:50.006Z,100387.38
2023-02-23T01:58:31.926Z,100378.81
2023-02-23T02:01:09.988Z,100378.81
2023-02-23T02:03:45.728Z,100382.19
2023-02-23T02:06:18.868Z,100376.16
2023-02-23T02:08:56.222Z,100372.75
2023-02-23T02:11:36.709Z,100377.06
2023-02-23T02:14:13.069Z,100377.03
2023-02-23T02:17:02.810Z,100374.38
2023-02-23T02:20:01.067Z,100373.47
2023-02-23T02:22:46.658Z,100377.69
2023-02-23T02:25:33.016Z,100377.53
2023-02-23T02:28:45.846Z,100375.72
2023-02-23T02:31:55.137Z,100377.38
2023-02-23T02:34:59.122Z,100376.44
2023-02-23T02:38:02.063Z,100383.16
2023-02-23T02:40:58.615Z,100378.78
2023-02-23T02:43:40.719Z,100383.81
2023-02-23T02:46:23.687Z,100383.75
2023-02-23T02:49:06.684Z,100381.19
2023-02-23T02:51:43.175Z,100372.59
2023-02-23T02:54:30.564Z,100374.25
2023-02-23T02:57:09.826Z,100385.34
2023-02-23T03:00:10.629Z,100381.84
2023-02-23T03:02:59.766Z,100382.59
2023-02-23T03:05:53.568Z,100380.81
2023-02-23T03:08:54.908Z,100383.38
2023-02-23T03:11:59.510Z,100382.53
2023-02-23T03:14:53.006Z,100385.06
2023-02-23T03:17:57.593Z,100390.09
2023-02-23T03:21:02.095Z,100383.16
2023-02-23T03:24:13.032Z,100382.22
2023-02-23T03:27:15.925Z,100388.13
2023-02-23T03:30:22.917Z,100389.78
2023-02-23T03:33:12.997Z,100381.19
2023-02-23T03:36:10.572Z,100376.81
2023-02-23T03:39:01.876Z,100381.91
2023-02-23T03:41:49.799Z,100385.25
2023-02-23T03:44:50.433Z,100375.81
2023-02-23T03:47:41.714Z,100376.69
2023-02-23T03:50:50.765Z,100377.50
2023-02-23T03:53:46.832Z,100374.06
2023-02-23T03:56:39.119Z,100377.47
2023-02-23T03:59:28.006Z,100373.19
2023-02-23T04:02:23.002Z,100380.91
2023-02-23T04:05:17.861Z,100374.97
2023-02-23T04:08:07.956Z,100380.16
2023-02-23T04:10:58.773Z,100384.38
2023-02-23T04:13:30.912Z,100377.47
2023-02-23T04:16:01.673Z,100382.59
2023-02-23T04:18:36.201Z,100385.16
2023-02-23T04:21:11.042Z,100387.75
2023-02-23T04:23:47.551Z,100380.00
2023-02-23T04:26:16.102Z,100382.56
2023-02-23T04:28:50.768Z,100377.44
2023-02-23T04:31:27.300Z,100380.03
2023-02-23T04:34:02.972Z,100376.66
2023-02-23T04:36:36.836Z,100374.16
2023-02-23T04:39:07.862Z,100369.06
2023-02-23T04:41:36.954Z,100375.06
2023-02-23T04:44:06.636Z,100370.81
2023-02-23T04:46:35.796Z,100364.06
2023-02-23T04:49:06.571Z,100366.69
2023-02-23T04:51:37.051Z,100371.06
2023-02-23T04:54:14.021Z,100355.75
2023-02-23T04:56:44.520Z,100355.81
2023-02-23T04:59:21.041Z,100355.94
2023-02-23T05:01:53.127Z,100359.41
2023-02-23T05:04:30.045Z,100356.03
2023-02-23T05:07:03.158Z,100363.88
2023-02-23T05:09:46.541Z,100363.91
2023-02-23T05:13:06.082Z,100351.16
2023-02-23T05:15:38.889Z,100359.78
2023-02-23T05:18:20.092Z,100364.97
2023-02-23T05:21:12.744Z,100357.28
2023-02-23T05:24:20.763Z,100366.75
2023-02-23T05:28:23.974Z,100348.72
2023-02-23T09:55:56.608Z,100288.19
2023-02-23T09:58:53.079Z,100287.94
2023-02-23T10:28:37.833Z,100249.28
2023-02-23T14:49:55.914Z,99927.34
2023-02-23T14:52:26.319Z,99921.47
2023-02-23T14:55:22.302Z,99917.28
2023-02-23T14:57:52.673Z,99910.66
2023-02-23T15:00:25.522Z,99911.00
2023-02-23T15:02:57.354Z,99911.16
2023-02-23T15:05:28.270Z,99901.81
2023-02-23T15:08:00.670Z,99914.44
2023-02-23T15:10:36.510Z,99901.59
2023-02-23T15:13:11.729Z,99901.84
2023-02-23T15:15:45.581Z,99896.88
2023-02-23T15:18:23.514Z,99897.91
2023-02-23T15:21:34.000Z,99892.09
2023-02-23T15:24:06.164Z,99883.03
2023-02-23T15:26:38.090Z,99884.16
2023-02-23T15:29:15.097Z,99870.38
2023-02-23T15:31:50.347Z,99876.66
2023-02-23T15:34:21.538Z,99875.97
2023-02-23T15:36:55.109Z,99869.25
2023-02-23T15:39:35.569Z,99865.97
2023-02-23T15:42:06.553Z,99864.44
2023-02-23T15:44:44.155Z,99857.72
2023-02-23T15:47:19.684Z,99860.50
2023-02-23T15:49:50.441Z,99859.03
2023-02-23T15:52:23.441Z,99853.28
2023-02-23T15:54:56.994Z,99853.53
2023-02-23T15:57:33.236Z,99854.56
2023-02-23T16:00:07.659Z,99851.25
2023-02-23T16:02:38.093Z,99847.16
2023-02-23T16:05:21.230Z,99856.03
2023-02-23T16:08:05.759Z,99853.56
2023-02-23T16:10:46.381Z,99849.38
2023-02-23T16:13:21.526Z,99856.44
2023-02-23T16:15:52.740Z,99854.97
2023-02-23T16:18:27.712Z,99851.53
2023-02-23T16:21:01.595Z,99847.25
2023-02-23T16:23:34.375Z,99842.16
2023-02-23T16:26:10.935Z,99841.44
2023-02-23T16:28:46.641Z,99834.63
2023-02-23T16:31:25.961Z,99831.59
2023-02-23T16:33:57.577Z,99831.03
2023-02-23T16:36:36.887Z,99828.69
2023-02-23T16:39:12.871Z,99830.59
2023-02-23T16:41:41.619Z,99828.13
2023-02-23T16:44:21.737Z,99823.91
2023-02-23T16:47:26.040Z,99820.78
2023-02-23T16:49:54.781Z,99822.75
2023-02-23T16:52:25.934Z,99819.50
2023-02-23T16:54:56.001Z,99824.03
2023-02-23T16:57:28.538Z,99824.25
2023-02-23T16:59:58.718Z,99826.09
2023-02-23T17:02:27.441Z,99821.06
2023-02-23T17:04:59.188Z,99823.75
2023-02-23T17:07:27.399Z,99824.75
2023-02-23T17:09:55.738Z,99819.63
2023-02-23T17:12:24.171Z,99824.88
2023-02-23T17:14:52.545Z,99819.78
2023-02-23T17:17:22.910Z,99817.25
2023-02-23T17:19:51.504Z,99813.06
2023-02-23T17:22:19.956Z,99809.72
2023-02-23T17:24:48.819Z,99800.28
2023-02-23T17:27:18.108Z,99803.84
2023-02-23T17:29:48.786Z,99806.47
2023-02-23T17:32:18.038Z,99801.34
2023-02-23T17:34:50.293Z,99798.84
2023-02-23T17:37:20.412Z,99794.69
2023-02-23T17:39:49.798Z,99788.75
2023-02-23T17:42:19.590Z,99778.47
2023-02-23T17:44:48.785Z,99776.84
2023-02-23T17:47:19.418Z,99776.03
2023-02-23T17:49:49.451Z,99777.03
2023-02-23T17:52:20.669Z,99768.50
2023-02-23T17:54:49.165Z,99759.97
2023-02-23T17:57:17.934Z,99762.63
2023-02-23T17:59:46.386Z,99759.28
2023-02-23T18:02:16.955Z,99754.19
2023-02-23T18:04:46.121Z,99746.47
2023-02-23T18:07:16.281Z,99745.66
2023-02-23T18:09:45.215Z,99738.84
2023-02-23T18:12:14.526Z,99741.47
2023-02-23T18:14:43.502Z,99739.84
2023-02-23T18:17:12.285Z,99736.38
2023-02-23T18:19:40.594Z,99733.78
2023-02-23T18:22:09.660Z,99738.19
2023-02-23T18:24:39.738Z,99733.06
2023-02-23T18:27:08.442Z,99729.69
2023-02-23T18:29:37.765Z,99729.78
2023-02-23T18:32:07.938Z,99724.66
2023-02-23T18:34:37.691Z,99725.59
2023-02-23T18:37:10.342Z,99723.03
2023-02-23T18:39:40.204Z,99717.94
2023-02-23T18:42:08.655Z,99703.31
2023-02-23T18:44:37.156Z,99705.03
2023-02-23T18:47:05.472Z,99698.16
2023-02-23T18:49:33.925Z,99694.69
2023-02-23T18:52:05.597Z,99686.94
2023-02-23T18:54:34.801Z,99684.38
2023-02-23T18:57:05.796Z,99690.44
2023-02-23T18:59:34.638Z,99688.75
2023-02-23T19:02:03.228Z,99681.88
2023-02-23T19:04:31.728Z,99674.13
2023-02-23T19:07:00.128Z,99672.34
2023-02-23T19:09:28.413Z,99667.16
2023-02-23T19:11:56.725Z,99665.38
2023-02-23T19:14:47.841Z,99656.81
2023-02-23T19:17:15.929Z,99666.28
2023-02-23T19:19:44.629Z,99657.59
2023-02-23T19:22:13.333Z,99655.78
2023-02-23T19:24:42.003Z,99650.47
2023-02-23T19:27:11.691Z,99649.44
2023-02-23T19:29:41.855Z,99651.03
2023-02-23T19:32:11.064Z,99648.28
2023-02-23T19:34:40.532Z,99642.97
2023-02-23T19:37:09.480Z,99629.88
2023-02-23T19:39:38.295Z,99630.63
2023-02-23T19:42:07.495Z,99621.91
2023-02-23T19:44:36.526Z,99621.81
2023-02-23T19:47:06.520Z,99616.53
2023-02-23T19:49:34.969Z,99614.66
2023-02-23T19:52:03.440Z,99598.16
2023-02-23T19:54:34.173Z,99604.94
2023-02-23T19:57:04.270Z,99598.75
2023-02-23T19:59:32.995Z,99596.06
2023-02-23T20:02:01.762Z,99584.69
2023-02-23T20:04:31.829Z,99583.69
2023-02-23T20:07:00.327Z,99581.81
2023-02-23T20:09:31.222Z,99574.69
2023-02-23T20:11:59.779Z,99574.56
2023-02-23T20:14:28.529Z,99576.13
2023-02-23T20:16:57.244Z,99568.22
2023-02-23T20:19:25.983Z,99559.53
2023-02-23T20:21:57.390Z,99565.44
2023-02-23T20:24:25.843Z,99556.72
2023-02-23T20:26:58.265Z,99552.28
2023-02-23T20:29:28.396Z,99541.75
2023-02-23T20:32:00.089Z,99537.19
2023-02-23T20:34:29.257Z,99536.19
2023-02-23T20:36:59.363Z,99541.34
2023-02-23T20:39:27.941Z,99536.16
2023-02-23T20:41:56.409Z,99531.78
2023-02-23T20:44:26.508Z,99523.88
2023-02-23T20:46:54.936Z,99525.50
2023-02-23T20:49:25.501Z,99515.84
2023-02-23T20:51:54.557Z,99518.38
2023-02-23T20:54:25.665Z,99515.69
2023-02-23T20:57:00.245Z,99514.69
2023-02-23T20:59:32.939Z,99508.53
2023-02-23T21:02:04.602Z,99503.25
2023-02-23T21:04:35.650Z,99501.31
2023-02-23T21:07:05.594Z,99496.78
2023-02-23T21:09:35.798Z,99496.69
2023-02-23T21:12:05.004Z,99498.25
2023-02-23T21:14:35.497Z,99489.53
2023-02-23T21:17:05.512Z,99484.25
2023-02-23T21:19:34.634Z,99480.72
2023-02-23T21:22:03.255Z,99478.91
2023-02-23T21:24:33.986Z,99473.59
2023-02-23T21:27:05.599Z,99474.34
2023-02-23T21:29:34.282Z,99470.88
2023-02-23T21:32:03.113Z,99470.88
2023-02-23T21:34:32.104Z,99470.91
2023-02-23T21:37:01.177Z,99476.91
2023-02-23T21:39:30.659Z,99465.72
2023-02-23T21:41:59.793Z,99463.13
2023-02-23T21:44:29.700Z,99464.81
2023-02-23T21:46:58.155Z,99459.63
2023-02-23T21:49:26.820Z,99456.25
2023-02-23T21:51:57.971Z,99455.34
2023-02-23T21:54:26.917Z,99456.13
2023-02-23T21:56:55.410Z,99450.94
2023-02-23T21:59:24.216Z,99445.88
2023-02-23T22:01:54.139Z,99444.91
2023-02-23T22:04:22.550Z,99440.56
2023-02-23T22:06:50.953Z,99437.97
2023-02-23T22:09:19.447Z,99431.94
2023-02-23T22:11:48.843Z,99433.69
2023-02-23T22:14:18.169Z,99427.59
2023-02-23T22:16:47.907Z,99418.03
2023-02-23T22:19:19.104Z,99417.03
2023-02-23T22:21:49.079Z,99418.72
2023-02-23T22:24:18.273Z,99412.63
2023-02-23T22:26:50.693Z,99412.56
2023-02-23T22:29:19.348Z,99411.56
2023-02-23T22:31:47.734Z,99408.06
2023-02-23T22:34:18.566Z,99401.88
2023-02-23T22:36:48.551Z,99401.75
2023-02-23T22:39:18.789Z,99394.78
2023-02-23T22:41:48.018Z,99392.97
2023-02-23T22:44:18.917Z,99382.59
2023-02-23T22:46:48.438Z,99385.19
2023-02-23T22:49:20.077Z,99375.63
2023-02-23T22:51:48.521Z,99366.91
2023-02-23T22:54:17.585Z,99368.59
2023-02-23T22:56:47.064Z,99366.00
2023-02-23T22:59:17.702Z,99357.31
2023-02-23T23:01:48.996Z,99351.34
2023-02-23T23:04:22.184Z,99346.88
2023-02-23T23:06:51.747Z,99347.75
2023-02-23T23:09:21.292Z,99345.88
2023-02-23T23:11:51.353Z,99340.53
2023-02-23T23:14:20.793Z,99339.44
2023-02-23T23:16:49.883Z,99336.75
2023-02-23T23:19:24.385Z,99334.84
2023-02-23T23:21:55.951Z,99322.44
2023-02-23T23:24:26.655Z,99324.91
2023-02-23T23:27:00.546Z,99321.41
2023-02-23T23:29:30.600Z,99315.31
2023-02-23T23:31:59.424Z,99311.81
2023-02-23T23:34:33.874Z,99304.03
2023-02-23T23:37:03.113Z,99305.81
2023-02-23T23:39:32.374Z,99300.69
2023-02-23T23:42:02.660Z,99282.66
2023-02-23T23:44:34.021Z,99284.66
2023-02-23T23:47:05.366Z,99289.13
2023-02-23T23:49:39.220Z,99283.19
2023-02-23T23:52:08.309Z,99277.19
2023-02-23T23:54:39.447Z,99277.25
2023-02-23T23:57:11.864Z,99275.59
2023-02-23T23:59:46.480Z,99260.19
